LHR weather

London Heathrow Airport
London, England, United Kingdom

Public forecast

Using degrees Celsius for public forecast. Weather courtesy of forecast.io.

METAR (pilot weather report)

Retrieved 2017/12/15 22:20 UTC (0 seconds ago):

EGLL 152220Z AUTO 32006KT 290V350 9999 NCD 03/00 Q1010

TAF (pilot weather forecast)

Retrieved 2017/12/15 18:15 UTC (4 hours ago):

TAF EGLL 151655Z 1518/1624 33010KT 9999 SCT025 BECMG 1606/1609 27006KT PROB40 1621/1624 5000 BR